Feura Bush, New York
Current Conditions -  °F | °C
As of 7:45 AM on Friday 24 Oct 2014 (Local Time) from KALB Reporting Station
Light Rain Light Rain  
Wind Chill: 41°   Ceiling: 700
Heat Index: 45°   Visibility: 2.5mi
Dew Point: 43°   Wind: 6mph
Humidity: 93%   Direction: 360°N
Pressure: 29.85"   Gusts: NA
Location:  42.58°N, 73.88°W
Report Text: KALB 241145Z 36005KT 2 1/2SM -RA BR BKN007 OVC012 07/06 A2985 RMK AO2 TWR VIS 3 VIS 2V3 CIG 005V010 P0005 $
Loading
Personal Weather Stations






























Interactive Weather Map
Tropical Storm Tracking
New forecast layout! Learn more

10-Day Weather Forecast

Advertisements
Track Severe Weather on mobile